createdAt,value
2019-03-13T00:01:41.911Z,5.80
2019-03-13T00:04:10.723Z,5.82
2019-03-13T00:06:39.555Z,5.86
2019-03-13T00:09:10.329Z,5.88
2019-03-13T00:11:39.261Z,5.88
2019-03-13T00:14:08.049Z,5.87
2019-03-13T00:16:36.844Z,5.86
2019-03-13T00:19:05.641Z,5.86
2019-03-13T00:21:34.449Z,5.79
2019-03-13T00:24:03.232Z,5.70
2019-03-13T00:26:32.037Z,5.62
2019-03-13T00:29:00.862Z,5.52
2019-03-13T00:31:29.634Z,5.48
2019-03-13T00:33:59.503Z,5.44
2019-03-13T00:36:28.271Z,5.40
2019-03-13T00:38:57.068Z,5.38
2019-03-13T00:41:25.855Z,5.41
2019-03-13T00:43:54.671Z,5.45
2019-03-13T00:46:23.480Z,5.49
2019-03-13T00:48:52.267Z,5.53
2019-03-13T00:51:21.073Z,5.55
2019-03-13T00:53:49.919Z,5.55
2019-03-13T00:56:18.693Z,5.57
2019-03-13T00:58:47.478Z,5.57
2019-03-13T01:01:23.542Z,5.55
2019-03-13T01:03:59.228Z,5.52
2019-03-13T01:06:31.188Z,5.46
2019-03-13T01:09:00.016Z,5.39
2019-03-13T01:11:28.808Z,5.35
2019-03-13T01:13:57.594Z,5.30
2019-03-13T01:16:26.512Z,5.26
2019-03-13T01:18:55.341Z,5.26
2019-03-13T01:21:24.144Z,5.25
2019-03-13T01:23:52.912Z,5.24
2019-03-13T01:26:21.793Z,5.24
2019-03-13T01:28:50.648Z,5.23
2019-03-13T01:31:26.622Z,5.28
2019-03-13T01:33:59.588Z,5.31
2019-03-13T01:36:28.399Z,5.35
2019-03-13T01:38:57.216Z,5.34
2019-03-13T01:41:26.001Z,5.35
2019-03-13T01:43:54.791Z,5.33
2019-03-13T01:46:23.575Z,5.30
2019-03-13T01:48:52.371Z,5.26
2019-03-13T01:51:21.174Z,5.24
2019-03-13T01:53:49.963Z,5.20
2019-03-13T01:56:18.744Z,5.18
2019-03-13T01:58:47.526Z,5.18
2019-03-13T02:01:16.331Z,5.11
2019-03-13T02:03:45.090Z,5.05
2019-03-13T02:06:13.916Z,5.00
2019-03-13T02:08:42.702Z,4.95
2019-03-13T02:11:11.494Z,4.91
2019-03-13T02:13:40.275Z,4.88
2019-03-13T02:16:09.052Z,4.84
2019-03-13T02:18:37.899Z,4.80
2019-03-13T02:21:06.693Z,4.77
2019-03-13T02:23:35.472Z,4.75
2019-03-13T02:26:04.308Z,4.71
2019-03-13T02:28:33.142Z,4.71
2019-03-13T02:31:01.945Z,4.71
2019-03-13T02:33:30.824Z,4.74
2019-03-13T02:36:00.329Z,4.73
2019-03-13T02:38:29.111Z,4.71
2019-03-13T02:40:57.920Z,4.72
2019-03-13T02:43:26.745Z,4.73
2019-03-13T02:45:55.514Z,4.76
2019-03-13T02:48:24.299Z,4.84
2019-03-13T02:50:53.077Z,4.91
2019-03-13T02:53:21.874Z,4.96
2019-03-13T02:55:50.647Z,5.00
2019-03-13T02:58:19.517Z,5.01
2019-03-13T03:00:56.499Z,5.00
2019-03-13T03:03:34.051Z,4.99
2019-03-13T03:06:02.880Z,4.97
2019-03-13T03:08:31.755Z,4.97
2019-03-13T03:11:00.555Z,5.00
2019-03-13T03:13:29.345Z,5.04
2019-03-13T03:15:58.230Z,5.08
2019-03-13T03:18:27.018Z,5.12
2019-03-13T03:20:55.812Z,5.15
2019-03-13T03:23:24.592Z,5.18
2019-03-13T03:25:53.388Z,5.21
2019-03-13T03:28:22.393Z,5.25
2019-03-13T03:30:51.292Z,5.25
2019-03-13T03:33:20.089Z,5.29
2019-03-13T03:35:48.890Z,5.31
2019-03-13T03:38:17.680Z,5.33
2019-03-13T03:40:47.007Z,5.34
2019-03-13T03:43:15.793Z,5.34
2019-03-13T03:45:45.282Z,5.36
2019-03-13T03:48:14.067Z,5.35
2019-03-13T03:50:42.936Z,5.36
2019-03-13T03:53:11.721Z,5.37
2019-03-13T03:55:40.502Z,5.37
2019-03-13T03:58:09.304Z,5.40
2019-03-13T04:00:38.077Z,5.41
2019-03-13T04:03:06.970Z,5.44
2019-03-13T04:05:35.787Z,5.45
2019-03-13T04:08:04.668Z,5.46
2019-03-13T04:10:33.458Z,5.46
2019-03-13T04:13:02.352Z,5.46
2019-03-13T04:15:31.431Z,5.49
2019-03-13T04:18:01.165Z,5.51
2019-03-13T04:20:29.958Z,5.53
2019-03-13T04:22:58.732Z,5.55
2019-03-13T04:25:33.067Z,5.59
2019-03-13T04:28:01.930Z,5.61
2019-03-13T04:30:30.815Z,5.63
2019-03-13T04:32:59.630Z,5.66
2019-03-13T04:35:28.457Z,5.68
2019-03-13T04:37:57.295Z,5.70
2019-03-13T04:40:26.114Z,5.71
2019-03-13T04:42:55.160Z,5.74
2019-03-13T04:45:24.019Z,5.75
2019-03-13T04:47:52.825Z,5.78
2019-03-13T04:50:21.602Z,5.82
2019-03-13T04:52:50.411Z,5.83
2019-03-13T04:55:19.232Z,5.84
2019-03-13T04:57:48.015Z,5.86
2019-03-13T05:00:16.924Z,5.86
2019-03-13T05:02:45.707Z,5.89
2019-03-13T05:05:25.964Z,5.90
2019-03-13T05:07:55.255Z,5.93
2019-03-13T05:10:24.037Z,5.95
2019-03-13T05:12:52.835Z,5.94
2019-03-13T05:15:21.606Z,5.94
2019-03-13T05:17:50.396Z,5.95
2019-03-13T05:20:19.192Z,5.95
2019-03-13T05:22:48.003Z,5.95
2019-03-13T05:25:19.209Z,5.95
2019-03-13T05:27:45.615Z,5.96
2019-03-13T05:30:14.487Z,5.94
2019-03-13T05:32:43.282Z,5.93
2019-03-13T05:35:12.079Z,5.92
2019-03-13T05:37:40.974Z,5.93
2019-03-13T05:40:09.860Z,5.95
2019-03-13T05:42:38.690Z,5.96
2019-03-13T05:45:08.492Z,5.97
2019-03-13T05:47:36.925Z,5.99
2019-03-13T05:50:05.772Z,5.99
2019-03-13T05:52:35.411Z,6.00
2019-03-13T05:55:04.274Z,6.01
2019-03-13T05:57:33.077Z,6.02
2019-03-13T06:00:01.881Z,6.05
2019-03-13T06:02:30.767Z,6.05
2019-03-13T06:04:59.543Z,6.09
2019-03-13T06:07:28.317Z,6.11
2019-03-13T06:09:57.138Z,6.16
2019-03-13T06:12:26.478Z,6.19
2019-03-13T06:14:55.292Z,6.22
2019-03-13T06:17:24.063Z,6.25
2019-03-13T06:19:52.971Z,6.28
2019-03-13T06:22:21.787Z,6.35
2019-03-13T06:24:50.562Z,6.40
2019-03-13T06:27:19.355Z,6.43
2019-03-13T06:29:48.138Z,6.48
2019-03-13T06:32:16.911Z,6.52
2019-03-13T06:34:45.773Z,6.52
2019-03-13T06:37:14.563Z,6.52
2019-03-13T06:39:43.342Z,6.53
2019-03-13T06:42:12.172Z,6.52
2019-03-13T06:44:41.088Z,6.50
2019-03-13T06:47:09.899Z,6.52
2019-03-13T06:49:38.682Z,6.52
2019-03-13T06:52:07.513Z,6.52
2019-03-13T06:54:36.299Z,6.54
2019-03-13T06:57:05.107Z,6.54
2019-03-13T06:59:38.112Z,6.55
2019-03-13T07:02:13.059Z,6.57
2019-03-13T07:05:04.264Z,6.55
2019-03-13T07:07:38.335Z,6.55
2019-03-13T07:10:11.916Z,6.55
2019-03-13T07:12:44.869Z,6.55
2019-03-13T07:15:24.406Z,6.56
2019-03-13T07:18:31.590Z,6.57
2019-03-13T07:22:04.490Z,6.54
2019-03-13T07:24:38.534Z,6.56
2019-03-13T07:28:11.355Z,6.60
2019-03-13T07:30:50.847Z,6.67
2019-03-13T07:33:26.663Z,6.75
2019-03-13T07:36:03.693Z,6.82
2019-03-13T07:38:40.813Z,6.90
2019-03-13T07:41:16.820Z,6.95
2019-03-13T07:43:53.866Z,6.97
2019-03-13T07:47:25.443Z,6.95
2019-03-13T07:50:37.858Z,6.88
2019-03-13T07:53:14.682Z,6.87
2019-03-13T07:55:56.753Z,6.85
2019-03-13T07:58:30.712Z,6.85
2019-03-13T08:01:04.899Z,6.91
2019-03-13T08:03:38.986Z,7.00
2019-03-13T08:06:13.112Z,7.16
2019-03-13T08:10:50.537Z,7.31
2019-03-13T08:13:25.568Z,7.32
2019-03-13T08:16:00.526Z,7.23
2019-03-13T08:18:36.515Z,7.14
2019-03-13T08:21:10.470Z,7.03
2019-03-13T08:23:43.440Z,6.97
2019-03-13T08:28:25.814Z,6.93
2019-03-13T08:31:05.831Z,6.84
2019-03-13T08:35:43.395Z,6.81
2019-03-13T08:38:16.348Z,6.84
2019-03-13T08:40:54.683Z,6.86
2019-03-13T08:43:46.870Z,6.88
2019-03-13T08:46:20.841Z,6.88
2019-03-13T08:49:01.907Z,6.87
2019-03-13T08:51:36.101Z,6.88
2019-03-13T08:54:13.002Z,6.90
2019-03-13T08:57:44.824Z,6.90
2019-03-13T09:00:19.838Z,7.01
2019-03-13T09:02:57.800Z,7.14
2019-03-13T09:05:38.864Z,7.19
2019-03-13T09:08:13.122Z,7.29
2019-03-13T09:10:46.072Z,7.54
2019-03-13T09:13:29.232Z,7.83
2019-03-13T09:16:07.208Z,8.21
2019-03-13T09:18:45.220Z,8.32
2019-03-13T09:21:20.069Z,8.45
2019-03-13T09:24:28.377Z,8.51
2019-03-13T09:27:05.501Z,8.51
2019-03-13T09:29:38.596Z,8.55
2019-03-13T09:33:16.215Z,8.54
2019-03-13T09:36:04.637Z,8.62
2019-03-13T09:38:42.673Z,8.73
2019-03-13T09:41:16.520Z,8.69
2019-03-13T09:43:59.609Z,8.60
2019-03-13T09:46:35.764Z,8.62
2019-03-13T09:49:09.683Z,8.60
2019-03-13T09:51:43.881Z,8.62
2019-03-13T09:54:18.588Z,8.68
2019-03-13T09:56:57.563Z,8.73
2019-03-13T09:59:42.776Z,8.85
2019-03-13T10:02:06.606Z,8.92
2019-03-13T10:04:44.604Z,9.08
2019-03-13T10:07:22.593Z,9.38
2019-03-13T10:09:56.536Z,9.49
2019-03-13T10:12:31.569Z,9.56
2019-03-13T10:15:05.491Z,9.51
2019-03-13T10:17:41.454Z,9.44
2019-03-13T10:20:14.414Z,9.31
2019-03-13T10:22:53.404Z,9.13
2019-03-13T10:25:27.239Z,8.93
2019-03-13T10:29:01.107Z,8.79
2019-03-13T10:31:41.124Z,8.64
2019-03-13T10:34:14.896Z,8.52
2019-03-13T10:36:50.590Z,8.46
2019-03-13T10:39:21.820Z,8.37
2019-03-13T10:41:59.802Z,8.30
2019-03-13T10:44:39.339Z,8.22
2019-03-13T10:47:12.313Z,8.14
2019-03-13T10:50:44.317Z,8.13
2019-03-13T10:53:18.539Z,8.06
2019-03-13T10:55:55.034Z,8.03
2019-03-13T10:58:26.457Z,8.02
2019-03-13T11:00:59.499Z,7.97
2019-03-13T11:03:41.601Z,7.94
2019-03-13T11:08:20.284Z,7.88
2019-03-13T11:11:05.348Z,7.79
2019-03-13T11:13:40.551Z,7.72
2019-03-13T11:17:13.558Z,7.69
2019-03-13T11:19:56.231Z,7.60
2019-03-13T11:22:29.954Z,7.55
2019-03-13T11:25:05.736Z,7.54
2019-03-13T11:27:45.638Z,7.51
2019-03-13T11:30:49.923Z,7.45
2019-03-13T11:33:56.104Z,7.43
2019-03-13T11:36:29.096Z,7.39
2019-03-13T11:39:05.051Z,7.40
2019-03-13T11:41:39.985Z,7.41
2019-03-13T11:44:45.566Z,7.40
2019-03-13T11:47:25.359Z,7.41
2019-03-13T11:49:58.270Z,7.40
2019-03-13T11:52:33.759Z,7.37
2019-03-13T11:55:07.193Z,7.38
2019-03-13T11:57:43.132Z,7.38
2019-03-13T12:00:17.653Z,7.38
2019-03-13T12:02:53.900Z,7.40
2019-03-13T12:05:33.907Z,7.43
2019-03-13T12:08:07.766Z,7.47
2019-03-13T12:10:41.997Z,7.53
2019-03-13T12:13:17.192Z,7.63
2019-03-13T12:15:50.163Z,7.80
2019-03-13T12:18:26.149Z,7.92
2019-03-13T12:21:05.735Z,8.01
2019-03-13T12:23:39.716Z,8.13
2019-03-13T12:26:16.772Z,8.20
2019-03-13T12:29:02.918Z,8.15
2019-03-13T12:32:36.789Z,8.07
2019-03-13T12:35:09.827Z,7.98
2019-03-13T12:37:43.801Z,7.94
2019-03-13T12:40:18.863Z,7.91
2019-03-13T12:43:52.066Z,7.88
2019-03-13T12:46:31.584Z,7.84
2019-03-13T12:49:04.665Z,7.82
2019-03-13T12:52:11.021Z,7.74
2019-03-13T12:54:45.259Z,7.64
2019-03-13T12:57:19.211Z,7.44
2019-03-13T12:59:54.019Z,7.11
2019-03-13T13:02:31.015Z,6.93
2019-03-13T13:05:05.041Z,6.74
2019-03-13T13:07:45.899Z,6.60
2019-03-13T13:10:25.571Z,6.58
2019-03-13T13:12:59.597Z,6.64
2019-03-13T13:15:33.355Z,6.77
2019-03-13T13:19:04.901Z,6.97
2019-03-13T13:21:33.666Z,7.21
2019-03-13T13:24:02.451Z,7.34
2019-03-13T13:26:31.222Z,7.49
2019-03-13T13:28:59.998Z,7.55
2019-03-13T13:31:28.798Z,7.64
2019-03-13T13:33:57.618Z,7.77
2019-03-13T13:36:27.535Z,7.87
2019-03-13T13:38:56.290Z,7.93
2019-03-13T13:41:25.097Z,7.96
2019-03-13T13:43:54.443Z,8.00
2019-03-13T13:46:28.803Z,8.06
2019-03-13T13:48:57.607Z,8.12
2019-03-13T13:51:26.369Z,8.22
2019-03-13T13:53:55.897Z,8.32
2019-03-13T13:56:24.020Z,8.48
2019-03-13T13:58:52.862Z,8.82
2019-03-13T14:01:21.598Z,9.23
2019-03-13T14:03:50.535Z,9.53
2019-03-13T14:06:19.398Z,9.57
2019-03-13T14:08:48.476Z,9.54
2019-03-13T14:11:17.262Z,9.51
2019-03-13T14:13:46.173Z,9.38
2019-03-13T14:16:15.250Z,9.32
2019-03-13T14:18:46.073Z,9.24
2019-03-13T14:21:14.849Z,9.26
2019-03-13T14:23:44.439Z,9.32
2019-03-13T14:26:13.245Z,9.34
2019-03-13T14:28:42.071Z,9.34
2019-03-13T14:31:10.879Z,9.32
2019-03-13T14:33:39.678Z,9.34
2019-03-13T14:36:08.445Z,9.52
2019-03-13T14:38:37.231Z,9.66
2019-03-13T14:41:06.019Z,9.68
2019-03-13T14:43:34.799Z,9.64
2019-03-13T14:46:03.599Z,9.67
2019-03-13T14:48:32.392Z,9.70
2019-03-13T14:51:01.648Z,9.91
2019-03-13T14:53:30.449Z,10.21
2019-03-13T14:55:59.256Z,10.46
2019-03-13T14:58:28.776Z,10.59
2019-03-13T15:00:58.061Z,10.48
2019-03-13T15:03:26.844Z,10.18
2019-03-13T15:05:55.723Z,9.82
2019-03-13T15:08:25.756Z,9.55
2019-03-13T15:10:55.233Z,9.44
2019-03-13T15:13:24.072Z,9.40
2019-03-13T15:15:52.925Z,9.35
2019-03-13T15:18:22.146Z,9.28
2019-03-13T15:20:50.909Z,9.19
2019-03-13T15:23:19.701Z,9.15
2019-03-13T15:25:49.015Z,9.14
2019-03-13T15:28:17.807Z,9.16
2019-03-13T15:30:46.680Z,9.11
2019-03-13T15:33:16.104Z,9.13
2019-03-13T15:35:46.149Z,9.14
2019-03-13T15:38:15.010Z,9.16
2019-03-13T15:40:43.947Z,9.17
2019-03-13T15:43:13.597Z,9.19
2019-03-13T15:45:42.421Z,9.20
2019-03-13T15:48:11.239Z,9.26
2019-03-13T15:50:40.116Z,9.28
2019-03-13T15:53:08.995Z,9.30
2019-03-13T15:55:38.067Z,9.33
2019-03-13T15:58:06.854Z,9.40
2019-03-13T16:00:35.645Z,9.38
2019-03-13T16:03:04.540Z,9.35
2019-03-13T16:05:33.323Z,9.34
2019-03-13T16:08:02.143Z,9.31
2019-03-13T16:10:30.931Z,9.27
2019-03-13T16:13:01.673Z,9.29
2019-03-13T16:15:30.976Z,9.28
2019-03-13T16:17:59.802Z,9.29
2019-03-13T16:20:28.662Z,9.34
2019-03-13T16:22:58.659Z,9.35
2019-03-13T16:25:29.282Z,9.34
2019-03-13T16:27:58.810Z,9.30
2019-03-13T16:30:28.811Z,9.26
2019-03-13T16:32:57.616Z,9.26
2019-03-13T16:35:26.694Z,9.24
2019-03-13T16:37:55.264Z,9.24
2019-03-13T16:40:25.386Z,9.23
2019-03-13T16:42:54.246Z,9.25
2019-03-13T16:45:23.094Z,9.30
2019-03-13T16:47:52.646Z,9.34
2019-03-13T16:50:21.563Z,9.28
2019-03-13T16:52:50.861Z,9.19
2019-03-13T16:55:19.655Z,9.11
2019-03-13T16:57:49.139Z,9.03
2019-03-13T17:00:21.503Z,8.97
2019-03-13T17:02:54.160Z,8.91
2019-03-13T17:05:23.120Z,8.89
2019-03-13T17:07:51.985Z,8.89
2019-03-13T17:10:20.814Z,8.85
2019-03-13T17:12:49.608Z,8.78
2019-03-13T17:15:20.129Z,8.72
2019-03-13T17:17:48.959Z,8.67
2019-03-13T17:20:21.707Z,8.59
2019-03-13T17:22:50.563Z,8.58
2019-03-13T17:25:19.478Z,8.60
2019-03-13T17:27:48.431Z,8.57
2019-03-13T17:30:19.658Z,8.55
2019-03-13T17:32:51.143Z,8.55
2019-03-13T17:35:20.214Z,8.51
2019-03-13T17:37:49.035Z,8.47
2019-03-13T17:40:19.915Z,8.47
2019-03-13T17:42:48.859Z,8.47
2019-03-13T17:45:19.509Z,8.43
2019-03-13T17:47:48.336Z,8.37
2019-03-13T17:50:19.259Z,8.35
2019-03-13T17:52:48.059Z,8.36
2019-03-13T17:55:16.908Z,8.33
2019-03-13T17:57:45.713Z,8.27
2019-03-13T18:00:19.908Z,8.21
2019-03-13T18:02:48.774Z,8.16
2019-03-13T18:05:21.657Z,8.07
2019-03-13T18:07:50.447Z,8.03
2019-03-13T18:10:19.320Z,7.99
2019-03-13T18:12:48.223Z,7.96
2019-03-13T18:15:17.609Z,7.95
2019-03-13T18:17:46.432Z,7.92
2019-03-13T18:20:16.378Z,7.86
2019-03-13T18:22:45.339Z,7.84
2019-03-13T18:25:14.349Z,7.80
2019-03-13T18:27:43.201Z,7.74
2019-03-13T18:30:15.355Z,7.71
2019-03-13T18:32:44.271Z,7.67
2019-03-13T18:35:13.441Z,7.62
2019-03-13T18:37:42.318Z,7.59
2019-03-13T18:40:11.477Z,7.55
2019-03-13T18:42:40.346Z,7.54
2019-03-13T18:45:13.079Z,7.53
2019-03-13T18:47:41.963Z,7.49
2019-03-13T18:50:11.504Z,7.46
2019-03-13T18:52:40.376Z,7.42
2019-03-13T18:55:10.153Z,7.39
2019-03-13T18:57:38.929Z,7.34
2019-03-13T19:00:11.689Z,7.32
2019-03-13T19:02:40.491Z,7.30
2019-03-13T19:05:11.415Z,7.42
2019-03-13T19:07:40.222Z,7.30
2019-03-13T19:10:10.044Z,7.25
2019-03-13T19:12:38.839Z,7.27
2019-03-13T19:15:09.375Z,7.27
2019-03-13T19:17:38.150Z,7.23
2019-03-13T19:20:08.047Z,7.19
2019-03-13T19:22:36.831Z,7.16
2019-03-13T19:25:05.847Z,7.13
2019-03-13T19:27:34.808Z,7.09
2019-03-13T19:30:03.878Z,7.05
2019-03-13T19:32:33.061Z,7.02
2019-03-13T19:35:01.884Z,7.00
2019-03-13T19:37:30.694Z,6.97
2019-03-13T19:39:59.495Z,6.92
2019-03-13T19:42:28.293Z,6.89
2019-03-13T19:44:57.075Z,6.85
2019-03-13T19:47:25.877Z,6.84
2019-03-13T19:49:54.656Z,6.79
2019-03-13T19:52:23.512Z,6.76
2019-03-13T19:54:52.294Z,6.75
2019-03-13T19:57:21.085Z,6.72
2019-03-13T19:59:50.243Z,6.69
2019-03-13T20:02:19.028Z,6.66
2019-03-13T20:04:47.985Z,6.65
2019-03-13T20:07:16.647Z,6.64
2019-03-13T20:09:45.444Z,6.61
2019-03-13T20:12:14.408Z,6.57
2019-03-13T20:14:43.176Z,6.55
2019-03-13T20:17:11.981Z,6.54
2019-03-13T20:19:40.772Z,6.50
2019-03-13T20:22:09.684Z,6.46
2019-03-13T20:24:38.893Z,6.41
2019-03-13T20:27:07.495Z,6.39
2019-03-13T20:29:36.519Z,6.36
2019-03-13T20:32:05.378Z,6.36
2019-03-13T20:34:34.209Z,6.35
2019-03-13T20:37:03.000Z,6.36
2019-03-13T20:39:31.808Z,6.35
2019-03-13T20:42:01.062Z,6.31
2019-03-13T20:44:29.894Z,6.28
2019-03-13T20:46:58.690Z,6.26
2019-03-13T20:49:27.471Z,6.24
2019-03-13T20:51:56.269Z,6.24
2019-03-13T20:54:25.073Z,6.22
2019-03-13T20:56:53.878Z,6.21
2019-03-13T20:59:23.300Z,6.19
2019-03-13T21:01:52.155Z,6.17
2019-03-13T21:04:21.025Z,6.18
2019-03-13T21:06:49.783Z,6.21
2019-03-13T21:09:18.573Z,6.24
2019-03-13T21:11:48.073Z,6.26
2019-03-13T21:14:16.804Z,6.27
2019-03-13T21:16:45.599Z,6.27
2019-03-13T21:19:14.418Z,6.26
2019-03-13T21:21:43.230Z,6.24
2019-03-13T21:24:12.409Z,6.20
2019-03-13T21:26:41.176Z,6.16
2019-03-13T21:29:09.934Z,6.13
2019-03-13T21:31:38.739Z,6.10
2019-03-13T21:34:07.543Z,6.09
2019-03-13T21:36:36.373Z,6.07
2019-03-13T21:39:06.321Z,6.04
2019-03-13T21:41:35.629Z,6.03
2019-03-13T21:44:06.898Z,6.02
2019-03-13T21:46:35.759Z,6.04
2019-03-13T21:49:07.875Z,6.11
2019-03-13T21:51:34.453Z,6.18
2019-03-13T21:54:04.010Z,6.24
2019-03-13T21:56:34.056Z,6.31
2019-03-13T21:59:02.866Z,6.34
2019-03-13T22:01:31.637Z,6.39
2019-03-13T22:04:00.510Z,6.44
2019-03-13T22:06:29.637Z,6.47
2019-03-13T22:08:58.232Z,6.51
2019-03-13T22:11:27.007Z,6.53
2019-03-13T22:13:55.785Z,6.55
2019-03-13T22:16:25.123Z,6.57
2019-03-13T22:18:53.911Z,6.57
2019-03-13T22:21:22.722Z,6.55
2019-03-13T22:23:51.519Z,6.53
2019-03-13T22:26:20.330Z,6.50
2019-03-13T22:28:49.165Z,6.50
2019-03-13T22:31:17.961Z,6.48
2019-03-13T22:33:46.782Z,6.49
2019-03-13T22:36:15.743Z,6.51
2019-03-13T22:38:44.722Z,6.55
2019-03-13T22:41:21.174Z,6.61
2019-03-13T22:43:50.776Z,6.67
2019-03-13T22:46:19.698Z,6.72
2019-03-13T22:48:57.619Z,6.76
2019-03-13T22:51:17.323Z,6.78
2019-03-13T22:53:46.122Z,6.80
2019-03-13T22:56:15.025Z,6.81
2019-03-13T22:58:44.850Z,6.83
2019-03-13T23:01:16.530Z,6.83
2019-03-13T23:03:46.566Z,6.85
2019-03-13T23:06:15.323Z,6.89
2019-03-13T23:08:44.167Z,6.92
2019-03-13T23:11:13.000Z,6.95
2019-03-13T23:13:42.151Z,6.99
2019-03-13T23:16:10.895Z,7.01
2019-03-13T23:18:39.724Z,7.05
2019-03-13T23:21:08.624Z,7.08
2019-03-13T23:23:37.512Z,7.11
2019-03-13T23:26:06.305Z,7.14
2019-03-13T23:28:35.107Z,7.16
2019-03-13T23:31:03.955Z,7.17
2019-03-13T23:33:32.737Z,7.17
2019-03-13T23:36:02.432Z,7.19
2019-03-13T23:38:31.206Z,7.22
2019-03-13T23:40:59.984Z,7.24
2019-03-13T23:43:28.858Z,7.26
2019-03-13T23:45:57.623Z,7.29
2019-03-13T23:48:26.443Z,7.31
2019-03-13T23:50:55.222Z,7.35
2019-03-13T23:53:24.024Z,7.35
2019-03-13T23:55:52.848Z,7.39
2019-03-13T23:58:21.631Z,7.41
